createdAt,value
2023-03-03T00:00:25.632Z,16.17
2023-03-03T00:02:53.688Z,16.90
2023-03-03T00:05:20.392Z,17.42
2023-03-03T00:07:47.254Z,16.80
2023-03-03T00:10:14.131Z,16.55
2023-03-03T00:12:47.694Z,17.27
2023-03-03T00:15:16.359Z,16.33
2023-03-03T00:17:43.224Z,16.42
2023-03-03T00:20:34.247Z,15.82
2023-03-03T00:23:14.319Z,17.45
2023-03-03T00:25:44.189Z,16.05
2023-03-03T00:28:22.213Z,18.10
2023-03-03T00:30:49.226Z,16.70
2023-03-03T00:33:32.157Z,16.40
2023-03-03T00:36:19.986Z,16.75
2023-03-03T00:38:47.294Z,17.30
2023-03-03T00:41:20.031Z,16.60
2023-03-03T00:43:46.875Z,17.63
2023-03-03T00:46:17.670Z,16.60
2023-03-03T00:48:44.418Z,16.02
2023-03-03T00:51:25.716Z,17.77
2023-03-03T00:53:52.520Z,16.83
2023-03-03T00:56:20.302Z,17.40
2023-03-03T00:58:47.058Z,16.05
2023-03-03T01:01:14.116Z,17.35
2023-03-03T01:03:41.343Z,17.35
2023-03-03T01:06:08.231Z,17.02
2023-03-03T01:08:36.452Z,17.98
2023-03-03T01:11:07.614Z,16.05
2023-03-03T01:13:38.098Z,17.98
2023-03-03T01:16:06.120Z,16.10
2023-03-03T01:18:33.392Z,18.08
2023-03-03T01:21:00.129Z,17.67
2023-03-03T01:23:26.880Z,16.20
2023-03-03T01:25:54.955Z,17.00
2023-03-03T01:28:22.576Z,17.52
2023-03-03T01:30:49.280Z,15.82
2023-03-03T01:33:16.039Z,17.65
2023-03-03T01:35:44.727Z,17.65
2023-03-03T01:38:11.467Z,17.88
2023-03-03T01:40:38.450Z,16.83
2023-03-03T01:43:07.026Z,18.83
2023-03-03T01:46:04.100Z,17.67
2023-03-03T01:48:34.380Z,18.02
2023-03-03T01:51:03.307Z,17.63
2023-03-03T01:53:36.903Z,16.83
2023-03-03T01:56:07.312Z,16.50
2023-03-03T01:58:37.400Z,16.77
2023-03-03T02:01:12.092Z,15.52
2023-03-03T02:03:39.260Z,16.30
2023-03-03T02:06:09.420Z,17.38
2023-03-03T02:08:42.605Z,16.63
2023-03-03T02:11:10.983Z,15.60
2023-03-03T02:13:39.063Z,16.55
2023-03-03T02:16:06.774Z,16.63
2023-03-03T02:18:33.816Z,17.35
2023-03-03T02:21:07.039Z,17.98
2023-03-03T02:23:38.158Z,16.07
2023-03-03T02:26:10.610Z,16.92
2023-03-03T02:28:38.842Z,17.42
2023-03-03T02:31:08.568Z,16.08
2023-03-03T02:33:35.377Z,16.65
2023-03-03T02:36:02.201Z,17.05
2023-03-03T02:38:34.992Z,16.17
2023-03-03T02:41:09.179Z,18.13
2023-03-03T02:43:45.981Z,16.98
2023-03-03T02:46:12.733Z,16.83
2023-03-03T02:48:42.201Z,17.05
2023-03-03T02:51:11.762Z,16.80
2023-03-03T02:53:38.616Z,17.52
2023-03-03T02:56:06.425Z,17.92
2023-03-03T02:58:33.218Z,14.95
2023-03-03T03:01:01.521Z,15.27
2023-03-03T03:03:28.375Z,16.40
2023-03-03T03:05:55.156Z,15.07
2023-03-03T03:08:21.930Z,16.15
2023-03-03T03:10:48.764Z,15.52
2023-03-03T03:13:15.541Z,17.48
2023-03-03T03:15:42.296Z,16.58
2023-03-03T03:18:10.384Z,14.20
2023-03-03T03:20:37.679Z,18.52
2023-03-03T03:23:04.378Z,17.98
2023-03-03T03:25:31.122Z,16.73
2023-03-03T03:27:57.836Z,17.35
2023-03-03T03:30:24.624Z,16.30
2023-03-03T03:32:51.483Z,16.25
2023-03-03T03:35:19.741Z,17.98
2023-03-03T03:37:46.466Z,17.52
2023-03-03T03:40:13.405Z,17.88
2023-03-03T03:42:40.119Z,17.02
2023-03-03T03:45:08.100Z,15.90
2023-03-03T03:47:34.818Z,17.08
2023-03-03T03:50:01.565Z,18.73
2023-03-03T03:52:29.774Z,16.33
2023-03-03T03:54:56.508Z,15.27
2023-03-03T03:57:25.620Z,17.52
2023-03-03T03:59:53.279Z,17.83
2023-03-03T04:02:20.042Z,17.38
2023-03-03T04:04:46.869Z,15.68
2023-03-03T04:07:13.858Z,16.83
2023-03-03T04:09:41.994Z,17.35
2023-03-03T04:12:08.807Z,15.82
2023-03-03T04:14:35.701Z,16.65
2023-03-03T04:17:02.476Z,16.65
2023-03-03T04:19:29.168Z,17.80
2023-03-03T04:21:55.888Z,14.70
2023-03-03T04:24:22.632Z,17.17
2023-03-03T04:26:50.714Z,17.33
2023-03-03T04:29:17.631Z,15.88
2023-03-03T04:31:44.406Z,15.80
2023-03-03T04:34:11.150Z,17.02
2023-03-03T04:36:37.828Z,16.35
2023-03-03T04:39:04.675Z,17.40
2023-03-03T04:41:31.398Z,17.67
2023-03-03T04:43:59.626Z,15.50
2023-03-03T04:46:26.380Z,17.77
2023-03-03T04:48:53.212Z,15.95
2023-03-03T04:51:20.037Z,19.13
2023-03-03T04:53:46.884Z,17.25
2023-03-03T04:56:13.904Z,16.77
2023-03-03T04:58:40.682Z,16.60
2023-03-03T05:01:12.517Z,17.35
2023-03-03T05:03:39.305Z,16.38
2023-03-03T05:06:06.716Z,15.88
2023-03-03T05:08:33.603Z,17.38
2023-03-03T05:11:00.302Z,18.58
2023-03-03T05:13:27.301Z,18.42
2023-03-03T05:15:55.657Z,17.38
2023-03-03T05:18:24.987Z,16.73
2023-03-03T05:20:52.370Z,16.45
2023-03-03T05:23:19.733Z,18.52
2023-03-03T05:25:47.630Z,16.42
2023-03-03T05:28:14.424Z,17.60
2023-03-03T05:30:41.356Z,18.25
2023-03-03T05:33:08.206Z,18.95
2023-03-03T05:35:36.297Z,18.23
2023-03-03T05:38:05.318Z,17.20
2023-03-03T05:40:32.436Z,17.45
2023-03-03T05:42:59.190Z,17.27
2023-03-03T05:45:26.007Z,19.13
2023-03-03T05:47:52.984Z,15.20
2023-03-03T05:50:22.065Z,18.33
2023-03-03T05:52:50.731Z,18.02
2023-03-03T05:55:18.031Z,18.08
2023-03-03T05:57:44.790Z,17.23
2023-03-03T06:00:12.908Z,17.42
2023-03-03T06:02:39.792Z,18.55
2023-03-03T06:05:07.810Z,17.90
2023-03-03T06:07:34.830Z,18.00
2023-03-03T06:10:03.656Z,18.98
2023-03-03T06:12:30.552Z,18.65
2023-03-03T06:14:57.276Z,17.20
2023-03-03T06:17:24.004Z,16.70
2023-03-03T06:19:50.709Z,19.27
2023-03-03T06:22:17.412Z,18.45
2023-03-03T06:24:44.369Z,17.40
2023-03-03T06:27:12.486Z,17.88
2023-03-03T06:29:39.183Z,17.27
2023-03-03T06:32:06.156Z,17.25
2023-03-03T06:34:32.968Z,18.50
2023-03-03T06:36:59.698Z,18.25
2023-03-03T06:39:26.436Z,18.13
2023-03-03T06:41:53.152Z,17.98
2023-03-03T06:44:21.227Z,19.10
2023-03-03T06:46:47.984Z,19.65
2023-03-03T06:49:14.867Z,17.65
2023-03-03T06:51:41.667Z,17.25
2023-03-03T06:54:12.154Z,18.15
2023-03-03T06:56:39.892Z,17.67
2023-03-03T06:59:12.027Z,18.10
2023-03-03T07:01:40.786Z,16.85
2023-03-03T07:04:16.291Z,17.85
2023-03-03T07:06:43.070Z,19.35
2023-03-03T07:09:17.696Z,17.20
2023-03-03T07:11:46.535Z,18.35
2023-03-03T07:14:16.979Z,17.92
2023-03-03T07:16:45.239Z,18.23
2023-03-03T07:19:19.217Z,18.15
2023-03-03T07:21:45.935Z,17.92
2023-03-03T07:24:24.962Z,18.23
2023-03-03T07:26:51.709Z,18.60
2023-03-03T07:29:24.090Z,19.23
2023-03-03T07:31:53.458Z,20.23
2023-03-03T07:34:22.591Z,17.05
2023-03-03T07:36:49.975Z,20.83
2023-03-03T07:39:33.831Z,17.88
2023-03-03T07:42:12.827Z,16.83
2023-03-03T07:44:39.643Z,18.40
2023-03-03T07:47:19.172Z,17.33
2023-03-03T07:49:47.905Z,17.80
2023-03-03T07:52:25.882Z,17.88
2023-03-03T07:54:53.641Z,18.63
2023-03-03T07:57:25.901Z,17.85
2023-03-03T07:59:54.703Z,18.60
2023-03-03T08:02:43.587Z,17.13
2023-03-03T08:05:30.413Z,19.05
2023-03-03T08:08:11.882Z,19.63
2023-03-03T08:10:44.243Z,18.23
2023-03-03T08:13:17.947Z,19.90
2023-03-03T08:15:46.306Z,19.75
2023-03-03T08:18:23.484Z,17.65
2023-03-03T08:20:55.176Z,17.95
2023-03-03T08:23:22.436Z,18.98
2023-03-03T08:25:50.826Z,18.80
2023-03-03T08:28:18.320Z,20.15
2023-03-03T08:30:45.448Z,19.42
2023-03-03T08:33:13.290Z,19.02
2023-03-03T08:35:42.117Z,17.58
2023-03-03T08:38:09.296Z,18.77
2023-03-03T08:40:36.451Z,18.13
2023-03-03T08:43:03.292Z,16.27
2023-03-03T08:45:30.444Z,16.67
2023-03-03T08:47:57.521Z,18.55
2023-03-03T08:50:24.313Z,20.08
2023-03-03T08:52:52.392Z,20.58
2023-03-03T08:55:19.281Z,19.67
2023-03-03T08:57:46.237Z,17.30
2023-03-03T09:00:15.774Z,18.05
2023-03-03T09:02:42.980Z,17.15
2023-03-03T09:05:10.670Z,17.92
2023-03-03T09:07:38.048Z,20.73
2023-03-03T09:10:07.645Z,19.65
2023-03-03T09:12:36.569Z,19.33
2023-03-03T09:15:18.293Z,17.85
2023-03-03T09:17:45.725Z,19.30
2023-03-03T09:20:33.129Z,19.52
2023-03-03T09:23:12.479Z,17.55
2023-03-03T09:25:42.344Z,17.63
2023-03-03T09:28:23.734Z,16.38
2023-03-03T09:30:52.046Z,17.63
2023-03-03T09:33:27.967Z,18.70
2023-03-03T09:36:01.064Z,18.83
2023-03-03T09:38:30.245Z,19.85
2023-03-03T09:41:30.689Z,19.27
2023-03-03T09:44:14.836Z,18.27
2023-03-03T09:46:49.069Z,20.23
2023-03-03T09:49:28.382Z,20.05
2023-03-03T09:52:18.746Z,18.55
2023-03-03T09:55:04.446Z,16.88
2023-03-03T09:57:46.716Z,19.58
2023-03-03T10:00:29.442Z,19.10
2023-03-03T10:03:13.556Z,18.63
2023-03-03T10:05:50.151Z,18.13
2023-03-03T10:08:42.275Z,16.17
2023-03-03T10:11:18.212Z,19.00
2023-03-03T10:14:12.570Z,18.45
2023-03-03T10:16:49.940Z,16.27
2023-03-03T10:19:36.366Z,17.98
2023-03-03T10:22:19.576Z,18.35
2023-03-03T10:25:00.606Z,18.27
2023-03-03T10:27:41.861Z,16.80
2023-03-03T10:30:37.116Z,18.50
2023-03-03T10:33:11.939Z,18.65
2023-03-03T10:36:06.945Z,18.85
2023-03-03T10:45:43.806Z,16.02
2023-03-03T10:48:38.704Z,17.17
2023-03-03T10:51:15.527Z,18.52
2023-03-03T10:53:52.105Z,18.85
2023-03-03T10:56:50.468Z,17.95
2023-03-03T10:59:41.309Z,15.85
2023-03-03T11:02:18.190Z,17.35
2023-03-03T11:05:11.844Z,17.63
2023-03-03T11:07:44.174Z,17.08
2023-03-03T11:10:24.510Z,17.13
2023-03-03T11:12:58.658Z,19.45
2023-03-03T11:15:35.854Z,18.75
2023-03-03T11:18:25.612Z,19.00
2023-03-03T11:21:01.143Z,18.80
2023-03-03T11:23:47.532Z,20.13
2023-03-03T11:26:22.786Z,18.65
2023-03-03T11:29:04.894Z,18.23
2023-03-03T11:31:38.820Z,18.42
2023-03-03T11:34:19.135Z,17.85
2023-03-03T11:36:50.335Z,18.60
2023-03-03T11:39:20.361Z,18.67
2023-03-03T11:41:56.872Z,18.75
2023-03-03T11:44:29.607Z,19.38
2023-03-03T11:47:01.985Z,16.85
2023-03-03T11:49:37.588Z,16.77
2023-03-03T11:52:18.353Z,19.38
2023-03-03T11:54:51.854Z,19.63
2023-03-03T11:57:23.554Z,18.13
2023-03-03T12:00:23.498Z,18.42
2023-03-03T12:03:13.860Z,20.00
2023-03-03T12:05:54.907Z,18.50
2023-03-03T12:08:46.410Z,19.52
2023-03-03T12:11:17.964Z,20.05
2023-03-03T12:13:53.755Z,18.65
2023-03-03T12:16:34.296Z,18.13
2023-03-03T12:19:15.197Z,19.73
2023-03-03T12:21:57.301Z,20.33
2023-03-03T12:24:36.475Z,17.02
2023-03-03T12:27:17.387Z,19.60
2023-03-03T12:29:52.853Z,17.75
2023-03-03T12:32:32.926Z,19.20
2023-03-03T12:35:06.370Z,19.33
2023-03-03T12:37:47.962Z,18.52
2023-03-03T12:40:19.273Z,19.77
2023-03-03T12:43:06.368Z,19.23
2023-03-03T12:45:41.900Z,17.35
2023-03-03T12:48:13.983Z,19.15
2023-03-03T12:50:52.656Z,18.92
2023-03-03T12:53:31.681Z,19.83
2023-03-03T12:56:04.157Z,18.50
2023-03-03T12:58:41.419Z,17.85
2023-03-03T13:01:22.624Z,18.38
2023-03-03T13:03:56.481Z,19.10
2023-03-03T13:06:28.577Z,17.90
2023-03-03T13:09:06.411Z,17.83
2023-03-03T13:11:53.949Z,17.95
2023-03-03T13:14:31.935Z,17.63
2023-03-03T13:17:08.920Z,19.40
2023-03-03T13:19:41.623Z,16.48
2023-03-03T13:22:12.600Z,18.60
2023-03-03T13:24:54.066Z,18.90
2023-03-03T13:27:23.063Z,18.55
2023-03-03T13:29:59.042Z,19.05
2023-03-03T13:32:35.056Z,18.90
2023-03-03T13:35:08.904Z,18.20
2023-03-03T13:37:42.084Z,19.60
2023-03-03T13:40:17.519Z,18.50
2023-03-03T13:42:47.521Z,22.27
2023-03-03T13:45:19.642Z,20.75
2023-03-03T13:47:53.178Z,21.50
2023-03-03T13:50:24.862Z,20.38
2023-03-03T13:53:04.798Z,20.90
2023-03-03T13:55:36.083Z,19.52
2023-03-03T13:58:09.941Z,19.58
2023-03-03T14:00:52.076Z,18.75
2023-03-03T14:03:34.216Z,20.90
2023-03-03T14:06:03.301Z,18.85
2023-03-03T14:09:06.298Z,17.00
2023-03-03T14:11:44.371Z,19.15
2023-03-03T14:14:25.251Z,20.40
2023-03-03T14:16:54.997Z,19.13
2023-03-03T14:19:25.917Z,19.70
2023-03-03T14:22:05.462Z,19.02
2023-03-03T14:24:33.921Z,19.80
2023-03-03T14:27:23.192Z,22.88
2023-03-03T14:29:50.063Z,19.75
2023-03-03T14:32:39.397Z,20.15
2023-03-03T14:35:18.986Z,20.17
2023-03-03T14:37:47.188Z,19.05
2023-03-03T14:40:18.920Z,21.85
2023-03-03T14:42:55.307Z,19.67
2023-03-03T14:45:34.749Z,20.27
2023-03-03T14:48:10.928Z,19.00
2023-03-03T14:50:40.105Z,18.45
2023-03-03T14:53:20.382Z,19.25
2023-03-03T14:55:49.467Z,19.02
2023-03-03T14:58:29.661Z,18.13
2023-03-03T15:01:29.863Z,19.88
2023-03-03T15:04:01.701Z,18.98
2023-03-03T15:06:35.181Z,19.17
2023-03-03T15:09:25.070Z,16.42
2023-03-03T15:11:52.879Z,16.25
2023-03-03T15:14:29.858Z,14.15
2023-03-03T15:16:58.140Z,15.02
2023-03-03T15:19:41.823Z,15.75
2023-03-03T15:22:17.200Z,14.65
2023-03-03T15:24:54.379Z,16.05
2023-03-03T15:27:27.223Z,13.77
2023-03-03T15:30:04.277Z,15.05
2023-03-03T15:32:39.509Z,14.95
2023-03-03T15:35:22.270Z,13.90
2023-03-03T15:37:56.681Z,13.88
2023-03-03T15:40:27.363Z,15.70
2023-03-03T15:43:06.726Z,15.13
2023-03-03T15:45:43.294Z,15.65
2023-03-03T15:48:23.893Z,15.07
2023-03-03T15:50:59.315Z,15.15
2023-03-03T15:53:58.123Z,14.00
2023-03-03T15:56:34.382Z,14.38
2023-03-03T15:59:29.764Z,16.92
2023-03-03T16:02:10.310Z,13.93
2023-03-03T16:04:42.743Z,15.85
2023-03-03T16:07:18.427Z,16.48
2023-03-03T16:09:56.038Z,14.50
2023-03-03T16:12:30.215Z,16.13
2023-03-03T16:15:15.174Z,15.40
2023-03-03T16:17:52.043Z,14.48
2023-03-03T16:20:23.576Z,16.25
2023-03-03T16:23:03.370Z,15.05
2023-03-03T16:25:42.284Z,15.77
2023-03-03T16:28:13.665Z,14.57
2023-03-03T16:30:49.137Z,16.45
2023-03-03T16:33:23.705Z,16.15
2023-03-03T16:36:00.986Z,15.18
2023-03-03T16:38:32.547Z,16.00
2023-03-03T16:41:01.466Z,16.98
2023-03-03T16:43:35.275Z,15.93
2023-03-03T16:46:10.489Z,17.10
2023-03-03T16:48:47.162Z,16.20
2023-03-03T16:51:28.921Z,16.25
2023-03-03T16:54:03.047Z,16.08
2023-03-03T16:59:24.808Z,15.82
2023-03-03T17:02:03.320Z,16.33
2023-03-03T17:04:39.845Z,16.42
2023-03-03T17:07:19.481Z,15.80
2023-03-03T17:10:00.270Z,16.55
2023-03-03T17:12:45.991Z,17.23
2023-03-03T17:15:42.801Z,16.80
2023-03-03T17:18:14.422Z,15.82
2023-03-03T17:20:48.084Z,17.15
2023-03-03T17:23:32.728Z,15.68
2023-03-03T17:26:09.925Z,15.93
2023-03-03T17:28:46.119Z,16.80
2023-03-03T17:31:21.349Z,17.63
2023-03-03T17:34:03.526Z,15.13
2023-03-03T17:36:47.795Z,14.88
2023-03-03T17:39:43.400Z,14.75
2023-03-03T17:42:19.585Z,16.95
2023-03-03T17:44:55.322Z,17.05
2023-03-03T17:47:34.960Z,15.70
2023-03-03T17:50:14.114Z,15.43
2023-03-03T17:53:00.443Z,14.95
2023-03-03T17:55:36.568Z,15.95
2023-03-03T17:58:27.830Z,15.45
2023-03-03T18:01:06.899Z,14.90
2023-03-03T18:04:03.811Z,15.25
2023-03-03T18:06:45.594Z,15.73
2023-03-03T18:09:32.994Z,16.08
2023-03-03T18:12:09.068Z,15.55
2023-03-03T18:15:07.705Z,15.65
2023-03-03T18:17:52.046Z,15.82
2023-03-03T18:22:51.848Z,15.90
2023-03-03T18:25:22.243Z,15.77
2023-03-03T18:28:19.464Z,15.23
2023-03-03T18:30:55.684Z,15.35
2023-03-03T18:33:40.663Z,17.00
2023-03-03T18:36:15.299Z,16.65
2023-03-03T18:38:46.568Z,16.85
2023-03-03T18:41:22.385Z,17.73
2023-03-03T18:43:58.243Z,18.35
2023-03-03T18:46:51.944Z,17.15
2023-03-03T18:49:38.866Z,17.00
2023-03-03T18:52:20.128Z,15.02
2023-03-03T18:55:15.714Z,15.38
2023-03-03T18:58:02.316Z,15.13
2023-03-03T19:00:29.762Z,15.95
2023-03-03T19:02:58.567Z,16.60
2023-03-03T19:05:27.636Z,15.48
2023-03-03T19:08:01.922Z,16.02
2023-03-03T19:10:53.261Z,15.52
2023-03-03T19:13:44.087Z,14.32
2023-03-03T19:16:26.695Z,15.80
2023-03-03T19:19:01.977Z,15.27
2023-03-03T19:21:31.774Z,14.77
2023-03-03T19:24:01.185Z,16.10
2023-03-03T19:26:44.723Z,15.80
2023-03-03T19:29:33.483Z,15.67
2023-03-03T19:32:17.851Z,17.60
2023-03-03T19:37:32.527Z,15.63
2023-03-03T19:40:11.525Z,15.95
2023-03-03T19:42:44.051Z,18.30
2023-03-03T19:45:24.909Z,16.90
2023-03-03T19:48:01.190Z,16.02
2023-03-03T19:50:42.227Z,15.48
2023-03-03T19:53:22.383Z,15.77
2023-03-03T19:56:10.408Z,16.98
2023-03-03T19:58:47.878Z,16.58
2023-03-03T20:01:21.691Z,17.83
2023-03-03T20:03:59.850Z,17.50
2023-03-03T20:06:37.622Z,16.45
2023-03-03T20:09:15.418Z,16.40
2023-03-03T20:11:56.892Z,16.25
2023-03-03T20:14:43.559Z,14.50
2023-03-03T20:17:40.108Z,16.40
2023-03-03T20:20:20.218Z,15.63
2023-03-03T20:22:55.162Z,17.33
2023-03-03T20:25:29.562Z,16.85
2023-03-03T20:28:06.119Z,16.08
2023-03-03T20:30:50.340Z,17.00
2023-03-03T20:33:35.154Z,17.38
2023-03-03T20:36:09.547Z,17.13
2023-03-03T20:38:47.155Z,15.68
2023-03-03T20:41:22.879Z,15.82
2023-03-03T20:44:04.088Z,17.33
2023-03-03T20:46:40.325Z,16.70
2023-03-03T20:49:37.203Z,17.73
2023-03-03T20:52:10.581Z,17.27
2023-03-03T20:54:44.248Z,18.77
2023-03-03T20:57:18.895Z,18.90
2023-03-03T20:59:54.326Z,16.83
2023-03-03T21:02:27.185Z,17.90
2023-03-03T21:05:09.042Z,16.52
2023-03-03T21:07:36.772Z,16.60
2023-03-03T21:10:14.428Z,16.23
2023-03-03T21:12:41.262Z,15.48
2023-03-03T21:15:22.904Z,16.33
2023-03-03T21:17:49.863Z,16.17
2023-03-03T21:20:24.763Z,16.92
2023-03-03T21:22:51.830Z,16.98
2023-03-03T21:25:46.471Z,18.00
2023-03-03T21:31:00.865Z,16.95
2023-03-03T21:33:55.831Z,16.73
2023-03-03T21:36:24.033Z,15.80
2023-03-03T21:38:53.051Z,17.40
2023-03-03T21:41:20.356Z,17.80
2023-03-03T21:43:48.642Z,17.40
2023-03-03T21:46:20.004Z,18.83
2023-03-03T21:48:47.074Z,17.92
2023-03-03T21:51:13.957Z,19.38
2023-03-03T21:53:41.570Z,19.30
2023-03-03T21:56:08.377Z,18.55
2023-03-03T21:58:35.104Z,19.45
2023-03-03T22:01:01.825Z,20.02
2023-03-03T22:03:29.888Z,17.27
2023-03-03T22:05:56.654Z,19.08
2023-03-03T22:08:23.671Z,17.60
2023-03-03T22:10:51.081Z,19.65
2023-03-03T22:13:18.062Z,19.15
2023-03-03T22:15:44.765Z,18.17
2023-03-03T22:18:11.630Z,17.85
2023-03-03T22:20:39.704Z,18.92
2023-03-03T22:23:06.394Z,19.38
2023-03-03T22:25:33.170Z,19.15
2023-03-03T22:27:59.894Z,20.52
2023-03-03T22:30:26.591Z,18.70
2023-03-03T22:32:53.286Z,17.42
2023-03-03T22:35:20.097Z,19.58
2023-03-03T22:37:48.191Z,18.55
2023-03-03T22:40:14.920Z,19.30
2023-03-03T22:42:41.636Z,18.55
2023-03-03T22:45:09.343Z,19.00
2023-03-03T22:47:36.079Z,19.73
2023-03-03T22:50:02.996Z,20.52
2023-03-03T22:52:29.799Z,18.95
2023-03-03T22:54:57.809Z,20.25
2023-03-03T22:57:24.685Z,20.05
2023-03-03T22:59:51.607Z,19.23
2023-03-03T23:02:18.368Z,19.63
2023-03-03T23:04:45.170Z,19.38
2023-03-03T23:07:12.028Z,22.50
2023-03-03T23:09:38.762Z,20.83
2023-03-03T23:12:07.345Z,19.20
2023-03-03T23:14:34.049Z,19.63
2023-03-03T23:17:00.908Z,19.38
2023-03-03T23:19:27.592Z,19.35
2023-03-03T23:21:54.329Z,19.92
2023-03-03T23:24:21.171Z,20.33
2023-03-03T23:26:47.839Z,18.85
2023-03-03T23:29:15.874Z,20.67
2023-03-03T23:31:42.619Z,19.60
2023-03-03T23:34:09.357Z,19.38
2023-03-03T23:36:36.080Z,20.13
2023-03-03T23:39:03.109Z,20.10
2023-03-03T23:41:30.089Z,19.98
2023-03-03T23:43:56.952Z,19.83
2023-03-03T23:46:25.138Z,20.27
2023-03-03T23:48:51.910Z,22.58
2023-03-03T23:51:18.617Z,20.35
2023-03-03T23:53:45.407Z,19.90
2023-03-03T23:56:12.098Z,19.92
2023-03-03T23:58:38.846Z,20.58
